sensor_id;sensor_type;location;lat;lon;timestamp;pressure;altitude;pressure_sealevel;temperature;humidity
68855;BME280;69984;-43.570;172.580;2023-06-22T00:16:09;101779.16;;;19.43;70.07
68855;BME280;69984;-43.570;172.580;2023-06-22T00:18:36;101784.09;;;19.77;68.45
68855;BME280;69984;-43.570;172.580;2023-06-22T00:21:03;101784.56;;;18.96;70.20
68855;BME280;69984;-43.570;172.580;2023-06-22T00:23:33;101777.59;;;18.95;69.89
68855;BME280;69984;-43.570;172.580;2023-06-22T00:26:00;101782.22;;;18.93;70.00
68855;BME280;69984;-43.570;172.580;2023-06-22T00:28:27;101778.09;;;18.35;71.92
68855;BME280;69984;-43.570;172.580;2023-06-22T00:30:55;101770.94;;;18.60;70.88
68855;BME280;69984;-43.570;172.580;2023-06-22T00:33:22;101773.66;;;18.20;72.36
68855;BME280;69984;-43.570;172.580;2023-06-22T00:35:49;101768.13;;;18.54;71.46
68855;BME280;69984;-43.570;172.580;2023-06-22T00:38:18;101774.28;;;18.54;71.45
68855;BME280;69984;-43.570;172.580;2023-06-22T00:40:46;101766.50;;;18.20;72.40
68855;BME280;69984;-43.570;172.580;2023-06-22T00:43:13;101767.50;;;18.19;72.58
68855;BME280;69984;-43.570;172.580;2023-06-22T00:45:40;101767.34;;;18.13;72.29
68855;BME280;69984;-43.570;172.580;2023-06-22T00:48:07;101763.59;;;17.83;73.35
68855;BME280;69984;-43.570;172.580;2023-06-22T00:50:35;101763.09;;;17.79;74.27
68855;BME280;69984;-43.570;172.580;2023-06-22T00:53:05;101759.09;;;17.91;72.80
68855;BME280;69984;-43.570;172.580;2023-06-22T00:55:42;101751.97;;;17.84;74.01
68855;BME280;69984;-43.570;172.580;2023-06-22T00:58:12;101749.81;;;17.71;73.75
68855;BME280;69984;-43.570;172.580;2023-06-22T01:00:40;101743.84;;;17.45;74.91
68855;BME280;69984;-43.570;172.580;2023-06-22T01:03:08;101745.03;;;17.83;74.33
68855;BME280;69984;-43.570;172.580;2023-06-22T01:05:35;101737.22;;;17.65;73.67
68855;BME280;69984;-43.570;172.580;2023-06-22T01:13:14;101737.00;;;17.26;75.48
68855;BME280;69984;-43.570;172.580;2023-06-22T01:16:17;101737.84;;;17.27;75.64
68855;BME280;69984;-43.570;172.580;2023-06-22T01:18:43;101735.69;;;17.38;75.97
68855;BME280;69984;-43.570;172.580;2023-06-22T01:21:16;101736.75;;;17.62;74.50
68855;BME280;69984;-43.570;172.580;2023-06-22T01:23:53;101738.00;;;17.33;75.37
68855;BME280;69984;-43.570;172.580;2023-06-22T01:29:04;101722.91;;;17.10;76.37
68855;BME280;69984;-43.570;172.580;2023-06-22T01:31:34;101713.38;;;16.83;77.07
68855;BME280;69984;-43.570;172.580;2023-06-22T01:34:05;101711.44;;;16.93;77.25
68855;BME280;69984;-43.570;172.580;2023-06-22T01:36:34;101702.53;;;17.02;76.32
68855;BME280;69984;-43.570;172.580;2023-06-22T01:39:02;101703.34;;;16.94;77.39
68855;BME280;69984;-43.570;172.580;2023-06-22T01:41:33;101705.81;;;16.88;76.84
68855;BME280;69984;-43.570;172.580;2023-06-22T01:44:01;101711.44;;;16.85;77.38
68855;BME280;69984;-43.570;172.580;2023-06-22T01:46:29;101709.47;;;16.53;77.93
68855;BME280;69984;-43.570;172.580;2023-06-22T01:48:57;101703.63;;;16.83;76.08
68855;BME280;69984;-43.570;172.580;2023-06-22T01:51:25;101700.25;;;16.65;76.87
68855;BME280;69984;-43.570;172.580;2023-06-22T01:53:52;101703.03;;;16.56;77.52
68855;BME280;69984;-43.570;172.580;2023-06-22T01:56:19;101698.84;;;16.87;76.29
68855;BME280;69984;-43.570;172.580;2023-06-22T02:02:02;101692.50;;;16.72;77.63
68855;BME280;69984;-43.570;172.580;2023-06-22T02:04:51;101681.91;;;16.64;77.59
68855;BME280;69984;-43.570;172.580;2023-06-22T02:07:20;101690.00;;;16.62;77.49
68855;BME280;69984;-43.570;172.580;2023-06-22T02:09:52;101696.47;;;16.76;77.12
68855;BME280;69984;-43.570;172.580;2023-06-22T02:12:23;101686.59;;;16.78;76.50
68855;BME280;69984;-43.570;172.580;2023-06-22T02:14:54;101684.72;;;16.78;76.52
68855;BME280;69984;-43.570;172.580;2023-06-22T02:17:21;101678.75;;;16.68;77.32
68855;BME280;69984;-43.570;172.580;2023-06-22T02:19:50;101683.59;;;16.89;75.93
68855;BME280;69984;-43.570;172.580;2023-06-22T02:22:18;101672.19;;;16.80;75.80
68855;BME280;69984;-43.570;172.580;2023-06-22T02:24:46;101668.97;;;16.61;76.31
68855;BME280;69984;-43.570;172.580;2023-06-22T02:27:13;101682.91;;;16.71;76.71
68855;BME280;69984;-43.570;172.580;2023-06-22T02:29:41;101674.53;;;16.91;75.64
68855;BME280;69984;-43.570;172.580;2023-06-22T02:32:08;101671.69;;;16.77;76.08
68855;BME280;69984;-43.570;172.580;2023-06-22T02:34:36;101674.53;;;16.91;76.03
68855;BME280;69984;-43.570;172.580;2023-06-22T02:37:03;101681.34;;;17.02;75.35
68855;BME280;69984;-43.570;172.580;2023-06-22T02:39:31;101683.31;;;17.00;75.35
68855;BME280;69984;-43.570;172.580;2023-06-22T02:41:58;101671.84;;;16.83;76.06
68855;BME280;69984;-43.570;172.580;2023-06-22T02:44:26;101686.44;;;16.87;76.10
68855;BME280;69984;-43.570;172.580;2023-06-22T02:46:53;101678.59;;;16.70;76.43
68855;BME280;69984;-43.570;172.580;2023-06-22T02:49:20;101689.00;;;16.71;76.78
68855;BME280;69984;-43.570;172.580;2023-06-22T02:51:48;101686.69;;;16.60;76.46
68855;BME280;69984;-43.570;172.580;2023-06-22T02:54:16;101687.75;;;16.83;76.08
68855;BME280;69984;-43.570;172.580;2023-06-22T02:56:43;101682.81;;;17.05;75.73
68855;BME280;69984;-43.570;172.580;2023-06-22T02:59:11;101687.25;;;16.96;75.53
68855;BME280;69984;-43.570;172.580;2023-06-22T03:01:38;101686.63;;;17.02;75.96
68855;BME280;69984;-43.570;172.580;2023-06-22T03:04:09;101682.31;;;17.17;75.20
68855;BME280;69984;-43.570;172.580;2023-06-22T03:06:36;101679.19;;;17.06;75.00
68855;BME280;69984;-43.570;172.580;2023-06-22T03:09:07;101679.63;;;16.77;76.11
68855;BME280;69984;-43.570;172.580;2023-06-22T03:11:34;101686.72;;;16.76;76.57
68855;BME280;69984;-43.570;172.580;2023-06-22T03:14:02;101683.47;;;16.98;75.91
68855;BME280;69984;-43.570;172.580;2023-06-22T03:16:29;101688.41;;;16.85;75.47
68855;BME280;69984;-43.570;172.580;2023-06-22T03:18:56;101680.78;;;16.74;75.87
68855;BME280;69984;-43.570;172.580;2023-06-22T03:21:25;101685.38;;;16.72;76.82
68855;BME280;69984;-43.570;172.580;2023-06-22T03:23:52;101680.56;;;16.68;76.35
68855;BME280;69984;-43.570;172.580;2023-06-22T03:26:20;101679.75;;;16.67;76.55
68855;BME280;69984;-43.570;172.580;2023-06-22T03:28:47;101689.69;;;16.73;75.84
68855;BME280;69984;-43.570;172.580;2023-06-22T03:31:14;101684.97;;;17.17;74.22
68855;BME280;69984;-43.570;172.580;2023-06-22T03:33:42;101690.53;;;16.82;75.06
68855;BME280;69984;-43.570;172.580;2023-06-22T03:36:09;101700.19;;;17.07;74.26
68855;BME280;69984;-43.570;172.580;2023-06-22T03:38:36;101691.28;;;17.08;73.99
68855;BME280;69984;-43.570;172.580;2023-06-22T03:41:03;101690.06;;;16.86;74.98
68855;BME280;69984;-43.570;172.580;2023-06-22T03:43:31;101689.88;;;16.80;74.59
68855;BME280;69984;-43.570;172.580;2023-06-22T03:45:58;101691.03;;;16.85;74.89
68855;BME280;69984;-43.570;172.580;2023-06-22T03:48:25;101690.25;;;16.93;75.27
68855;BME280;69984;-43.570;172.580;2023-06-22T03:50:52;101688.75;;;16.90;74.86
68855;BME280;69984;-43.570;172.580;2023-06-22T03:53:19;101686.28;;;16.55;76.40
68855;BME280;69984;-43.570;172.580;2023-06-22T03:55:50;101686.38;;;16.63;76.43
68855;BME280;69984;-43.570;172.580;2023-06-22T03:58:21;101691.63;;;16.29;77.62
68855;BME280;69984;-43.570;172.580;2023-06-22T04:00:49;101700.09;;;16.33;78.11
68855;BME280;69984;-43.570;172.580;2023-06-22T04:03:16;101702.25;;;16.37;78.28
68855;BME280;69984;-43.570;172.580;2023-06-22T04:05:47;101702.47;;;16.44;77.42
68855;BME280;69984;-43.570;172.580;2023-06-22T04:08:15;101704.22;;;16.61;77.29
68855;BME280;69984;-43.570;172.580;2023-06-22T04:10:42;101697.13;;;16.70;76.68
68855;BME280;69984;-43.570;172.580;2023-06-22T04:13:09;101708.56;;;16.70;76.54
68855;BME280;69984;-43.570;172.580;2023-06-22T04:15:36;101700.44;;;16.64;76.51
68855;BME280;69984;-43.570;172.580;2023-06-22T04:18:04;101694.16;;;16.73;76.25
68855;BME280;69984;-43.570;172.580;2023-06-22T04:20:31;101698.38;;;16.49;76.76
68855;BME280;69984;-43.570;172.580;2023-06-22T04:22:59;101696.44;;;16.60;76.50
68855;BME280;69984;-43.570;172.580;2023-06-22T04:25:26;101696.78;;;16.31;77.72
68855;BME280;69984;-43.570;172.580;2023-06-22T04:27:53;101691.75;;;16.54;76.78
68855;BME280;69984;-43.570;172.580;2023-06-22T04:30:20;101695.53;;;16.43;77.24
68855;BME280;69984;-43.570;172.580;2023-06-22T04:32:47;101697.28;;;16.34;77.74
68855;BME280;69984;-43.570;172.580;2023-06-22T04:35:24;101712.56;;;16.48;76.81
68855;BME280;69984;-43.570;172.580;2023-06-22T04:37:52;101703.88;;;16.64;76.18
68855;BME280;69984;-43.570;172.580;2023-06-22T04:40:22;101705.31;;;16.17;78.24
68855;BME280;69984;-43.570;172.580;2023-06-22T04:42:50;101711.09;;;16.46;77.21
68855;BME280;69984;-43.570;172.580;2023-06-22T04:45:20;101718.44;;;16.60;75.87
68855;BME280;69984;-43.570;172.580;2023-06-22T04:47:48;101704.78;;;16.47;76.46
68855;BME280;69984;-43.570;172.580;2023-06-22T04:50:15;101723.34;;;16.55;76.25
68855;BME280;69984;-43.570;172.580;2023-06-22T04:52:43;101722.50;;;16.46;76.74
68855;BME280;69984;-43.570;172.580;2023-06-22T04:55:11;101718.50;;;16.42;76.99
68855;BME280;69984;-43.570;172.580;2023-06-22T04:57:38;101725.63;;;16.42;76.95
68855;BME280;69984;-43.570;172.580;2023-06-22T05:00:06;101725.56;;;16.60;75.84
68855;BME280;69984;-43.570;172.580;2023-06-22T05:02:43;101719.81;;;16.38;77.29
68855;BME280;69984;-43.570;172.580;2023-06-22T05:05:12;101719.34;;;16.51;76.09
68855;BME280;69984;-43.570;172.580;2023-06-22T05:07:44;101726.97;;;16.46;76.08
68855;BME280;69984;-43.570;172.580;2023-06-22T05:10:14;101726.53;;;16.33;76.86
68855;BME280;69984;-43.570;172.580;2023-06-22T05:12:42;101729.16;;;16.25;76.64
68855;BME280;69984;-43.570;172.580;2023-06-22T05:15:09;101725.56;;;16.34;76.62
68855;BME280;69984;-43.570;172.580;2023-06-22T05:17:37;101721.94;;;16.35;76.67
68855;BME280;69984;-43.570;172.580;2023-06-22T05:20:12;101727.09;;;16.11;77.71
68855;BME280;69984;-43.570;172.580;2023-06-22T05:22:40;101734.53;;;16.15;77.76
68855;BME280;69984;-43.570;172.580;2023-06-22T05:25:10;101724.00;;;15.97;78.29
68855;BME280;69984;-43.570;172.580;2023-06-22T05:27:37;101718.72;;;16.23;77.61
68855;BME280;69984;-43.570;172.580;2023-06-22T05:30:07;101723.94;;;16.07;77.99
68855;BME280;69984;-43.570;172.580;2023-06-22T05:32:34;101730.41;;;16.13;77.88
68855;BME280;69984;-43.570;172.580;2023-06-22T05:35:02;101729.16;;;16.25;77.35
68855;BME280;69984;-43.570;172.580;2023-06-22T05:37:29;101724.41;;;16.36;76.39
68855;BME280;69984;-43.570;172.580;2023-06-22T05:39:56;101734.19;;;16.10;77.32
68855;BME280;69984;-43.570;172.580;2023-06-22T05:42:24;101737.03;;;16.17;77.40
68855;BME280;69984;-43.570;172.580;2023-06-22T05:44:52;101737.03;;;16.42;76.09
68855;BME280;69984;-43.570;172.580;2023-06-22T05:47:20;101739.16;;;16.39;76.30
68855;BME280;69984;-43.570;172.580;2023-06-22T05:49:47;101738.78;;;16.08;77.34
68855;BME280;69984;-43.570;172.580;2023-06-22T05:52:14;101749.38;;;16.08;77.35
68855;BME280;69984;-43.570;172.580;2023-06-22T05:54:41;101743.09;;;16.09;77.61
68855;BME280;69984;-43.570;172.580;2023-06-22T05:57:09;101748.50;;;15.99;78.31
68855;BME280;69984;-43.570;172.580;2023-06-22T05:59:36;101744.59;;;16.12;77.67
68855;BME280;69984;-43.570;172.580;2023-06-22T06:02:03;101740.72;;;16.24;77.28
68855;BME280;69984;-43.570;172.580;2023-06-22T06:04:31;101745.47;;;15.94;77.92
68855;BME280;69984;-43.570;172.580;2023-06-22T06:06:58;101748.56;;;16.08;77.47
68855;BME280;69984;-43.570;172.580;2023-06-22T06:09:25;101746.91;;;16.07;78.11
68855;BME280;69984;-43.570;172.580;2023-06-22T06:11:52;101744.66;;;15.94;78.51
68855;BME280;69984;-43.570;172.580;2023-06-22T06:14:19;101746.53;;;16.02;78.44
68855;BME280;69984;-43.570;172.580;2023-06-22T06:16:47;101747.88;;;16.06;78.15
68855;BME280;69984;-43.570;172.580;2023-06-22T06:19:14;101747.25;;;16.12;78.03
68855;BME280;69984;-43.570;172.580;2023-06-22T06:21:41;101745.03;;;15.99;78.18
68855;BME280;69984;-43.570;172.580;2023-06-22T06:24:08;101753.16;;;16.06;77.47
68855;BME280;69984;-43.570;172.580;2023-06-22T06:26:35;101746.06;;;16.06;78.09
68855;BME280;69984;-43.570;172.580;2023-06-22T06:29:02;101749.81;;;16.21;77.76
68855;BME280;69984;-43.570;172.580;2023-06-22T06:31:29;101753.84;;;16.08;78.72
68855;BME280;69984;-43.570;172.580;2023-06-22T06:33:57;101754.88;;;15.89;79.39
68855;BME280;69984;-43.570;172.580;2023-06-22T06:36:24;101753.78;;;15.99;78.80
68855;BME280;69984;-43.570;172.580;2023-06-22T06:38:54;101752.09;;;16.16;77.69
68855;BME280;69984;-43.570;172.580;2023-06-22T06:41:21;101752.50;;;16.04;78.23
68855;BME280;69984;-43.570;172.580;2023-06-22T06:43:48;101759.59;;;16.03;78.58
68855;BME280;69984;-43.570;172.580;2023-06-22T06:46:15;101761.41;;;16.03;78.46
68855;BME280;69984;-43.570;172.580;2023-06-22T06:48:42;101757.06;;;16.19;77.99
68855;BME280;69984;-43.570;172.580;2023-06-22T06:51:09;101765.88;;;16.28;77.46
68855;BME280;69984;-43.570;172.580;2023-06-22T06:53:38;101766.28;;;16.15;78.07
68855;BME280;69984;-43.570;172.580;2023-06-22T06:56:05;101761.56;;;16.27;78.50
68855;BME280;69984;-43.570;172.580;2023-06-22T06:58:32;101756.91;;;16.46;76.78
68855;BME280;69984;-43.570;172.580;2023-06-22T07:00:59;101757.38;;;16.16;78.19
68855;BME280;69984;-43.570;172.580;2023-06-22T07:03:26;101770.63;;;15.98;79.03
68855;BME280;69984;-43.570;172.580;2023-06-22T07:05:53;101755.75;;;15.97;78.99
68855;BME280;69984;-43.570;172.580;2023-06-22T07:08:20;101764.41;;;16.33;77.67
68855;BME280;69984;-43.570;172.580;2023-06-22T07:10:47;101755.66;;;16.33;76.71
68855;BME280;69984;-43.570;172.580;2023-06-22T07:13:14;101767.84;;;16.26;77.21
68855;BME280;69984;-43.570;172.580;2023-06-22T07:15:41;101765.72;;;16.29;77.39
68855;BME280;69984;-43.570;172.580;2023-06-22T07:18:09;101762.47;;;16.43;76.43
68855;BME280;69984;-43.570;172.580;2023-06-22T07:20:36;101769.03;;;16.31;76.97
68855;BME280;69984;-43.570;172.580;2023-06-22T07:23:03;101768.59;;;16.10;77.40
68855;BME280;69984;-43.570;172.580;2023-06-22T07:25:30;101764.09;;;16.36;77.11
68855;BME280;69984;-43.570;172.580;2023-06-22T07:28:02;101771.16;;;16.54;76.45
68855;BME280;69984;-43.570;172.580;2023-06-22T07:30:31;101769.72;;;16.33;77.09
68855;BME280;69984;-43.570;172.580;2023-06-22T07:32:58;101774.41;;;16.47;76.68
68855;BME280;69984;-43.570;172.580;2023-06-22T07:35:30;101777.31;;;16.36;76.75
68855;BME280;69984;-43.570;172.580;2023-06-22T07:37:57;101780.81;;;16.37;76.25
68855;BME280;69984;-43.570;172.580;2023-06-22T07:40:25;101778.94;;;16.55;76.09
68855;BME280;69984;-43.570;172.580;2023-06-22T07:42:53;101776.53;;;16.36;76.49
68855;BME280;69984;-43.570;172.580;2023-06-22T07:45:20;101778.94;;;16.29;76.58
68855;BME280;69984;-43.570;172.580;2023-06-22T07:47:47;101771.69;;;16.31;77.02
68855;BME280;69984;-43.570;172.580;2023-06-22T07:50:14;101767.38;;;16.30;76.27
68855;BME280;69984;-43.570;172.580;2023-06-22T07:52:42;101760.78;;;16.09;77.41
68855;BME280;69984;-43.570;172.580;2023-06-22T07:55:09;101752.13;;;16.24;77.31
68855;BME280;69984;-43.570;172.580;2023-06-22T07:57:36;101757.72;;;16.47;76.11
68855;BME280;69984;-43.570;172.580;2023-06-22T08:00:05;101756.59;;;16.49;76.07
68855;BME280;69984;-43.570;172.580;2023-06-22T08:02:45;101762.25;;;16.29;77.03
68855;BME280;69984;-43.570;172.580;2023-06-22T08:05:14;101770.78;;;16.15;77.58
68855;BME280;69984;-43.570;172.580;2023-06-22T08:07:41;101764.72;;;16.05;78.45
68855;BME280;69984;-43.570;172.580;2023-06-22T08:10:10;101761.34;;;15.94;78.84
68855;BME280;69984;-43.570;172.580;2023-06-22T08:12:38;101766.50;;;16.22;78.52
68855;BME280;69984;-43.570;172.580;2023-06-22T08:15:06;101761.88;;;15.98;79.35
68855;BME280;69984;-43.570;172.580;2023-06-22T08:17:39;101761.09;;;16.31;78.66
68855;BME280;69984;-43.570;172.580;2023-06-22T08:20:07;101759.41;;;15.96;78.86
68855;BME280;69984;-43.570;172.580;2023-06-22T08:22:42;101759.75;;;16.27;78.22
68855;BME280;69984;-43.570;172.580;2023-06-22T08:25:10;101766.34;;;16.23;77.98
68855;BME280;69984;-43.570;172.580;2023-06-22T08:27:37;101763.41;;;16.01;79.08
68855;BME280;69984;-43.570;172.580;2023-06-22T08:30:06;101765.88;;;16.02;79.22
68855;BME280;69984;-43.570;172.580;2023-06-22T08:32:33;101766.81;;;16.19;77.76
68855;BME280;69984;-43.570;172.580;2023-06-22T08:35:00;101762.41;;;15.84;79.95
68855;BME280;69984;-43.570;172.580;2023-06-22T08:37:28;101773.44;;;15.97;78.58
68855;BME280;69984;-43.570;172.580;2023-06-22T08:40:03;101769.41;;;16.11;78.17
68855;BME280;69984;-43.570;172.580;2023-06-22T08:42:35;101770.78;;;16.23;77.46
68855;BME280;69984;-43.570;172.580;2023-06-22T08:45:03;101771.69;;;16.06;78.22
68855;BME280;69984;-43.570;172.580;2023-06-22T08:47:30;101768.34;;;16.29;77.78
68855;BME280;69984;-43.570;172.580;2023-06-22T08:49:57;101775.22;;;16.14;78.38
68855;BME280;69984;-43.570;172.580;2023-06-22T08:52:24;101778.47;;;16.08;78.30
68855;BME280;69984;-43.570;172.580;2023-06-22T08:54:52;101777.31;;;16.36;77.03
68855;BME280;69984;-43.570;172.580;2023-06-22T08:57:20;101776.97;;;16.06;77.66
68855;BME280;69984;-43.570;172.580;2023-06-22T08:59:47;101779.94;;;16.28;77.44
68855;BME280;69984;-43.570;172.580;2023-06-22T09:02:14;101784.22;;;16.29;77.14
68855;BME280;69984;-43.570;172.580;2023-06-22T09:04:41;101771.84;;;16.04;78.64
68855;BME280;69984;-43.570;172.580;2023-06-22T09:07:08;101779.94;;;16.28;77.51
68855;BME280;69984;-43.570;172.580;2023-06-22T09:09:35;101770.09;;;16.38;76.92
68855;BME280;69984;-43.570;172.580;2023-06-22T09:12:03;101780.72;;;16.21;77.35
68855;BME280;69984;-43.570;172.580;2023-06-22T09:14:30;101774.22;;;16.15;77.68
68855;BME280;69984;-43.570;172.580;2023-06-22T09:16:57;101777.91;;;15.96;78.83
68855;BME280;69984;-43.570;172.580;2023-06-22T09:19:24;101779.94;;;16.03;78.50
68855;BME280;69984;-43.570;172.580;2023-06-22T09:21:51;101776.72;;;16.17;78.24
68855;BME280;69984;-43.570;172.580;2023-06-22T09:24:19;101774.22;;;16.41;76.97
68855;BME280;69984;-43.570;172.580;2023-06-22T09:26:46;101771.56;;;16.15;78.15
68855;BME280;69984;-43.570;172.580;2023-06-22T09:29:13;101771.47;;;16.50;76.70
68855;BME280;69984;-43.570;172.580;2023-06-22T09:31:40;101773.19;;;16.34;77.84
68855;BME280;69984;-43.570;172.580;2023-06-22T09:34:07;101775.22;;;16.14;77.81
68855;BME280;69984;-43.570;172.580;2023-06-22T09:36:34;101774.69;;;16.11;78.61
68855;BME280;69984;-43.570;172.580;2023-06-22T09:39:01;101768.53;;;16.28;77.99
68855;BME280;69984;-43.570;172.580;2023-06-22T09:41:32;101781.25;;;16.24;77.57
68855;BME280;69984;-43.570;172.580;2023-06-22T09:43:59;101773.56;;;16.13;77.92
68855;BME280;69984;-43.570;172.580;2023-06-22T09:46:26;101774.84;;;16.09;78.23
68855;BME280;69984;-43.570;172.580;2023-06-22T09:48:54;101775.94;;;16.24;77.44
68855;BME280;69984;-43.570;172.580;2023-06-22T09:51:21;101777.69;;;16.16;78.20
68855;BME280;69984;-43.570;172.580;2023-06-22T09:53:53;101777.69;;;16.16;78.44
68855;BME280;69984;-43.570;172.580;2023-06-22T09:56:20;101779.22;;;16.18;78.02
68855;BME280;69984;-43.570;172.580;2023-06-22T09:58:47;101784.13;;;16.13;78.70
68855;BME280;69984;-43.570;172.580;2023-06-22T10:01:16;101786.94;;;16.37;77.91
68855;BME280;69984;-43.570;172.580;2023-06-22T10:03:44;101783.44;;;16.29;77.88
68855;BME280;69984;-43.570;172.580;2023-06-22T10:06:11;101777.50;;;16.09;78.74
68855;BME280;69984;-43.570;172.580;2023-06-22T10:08:38;101779.13;;;16.28;78.28
68855;BME280;69984;-43.570;172.580;2023-06-22T10:11:07;101778.06;;;16.21;78.04
68855;BME280;69984;-43.570;172.580;2023-06-22T10:13:34;101786.91;;;16.12;78.72
68855;BME280;69984;-43.570;172.580;2023-06-22T10:16:01;101779.47;;;16.07;79.34
68855;BME280;69984;-43.570;172.580;2023-06-22T10:18:28;101777.72;;;15.98;79.42
68855;BME280;69984;-43.570;172.580;2023-06-22T10:20:55;101781.25;;;16.24;78.99
68855;BME280;69984;-43.570;172.580;2023-06-22T10:23:22;101780.47;;;16.32;78.78
68855;BME280;69984;-43.570;172.580;2023-06-22T10:25:52;101777.09;;;16.22;78.71
68855;BME280;69984;-43.570;172.580;2023-06-22T10:28:19;101781.88;;;16.18;78.95
68855;BME280;69984;-43.570;172.580;2023-06-22T10:30:47;101780.47;;;16.32;78.23
68855;BME280;69984;-43.570;172.580;2023-06-22T10:33:14;101785.59;;;16.08;79.36
68855;BME280;69984;-43.570;172.580;2023-06-22T10:35:41;101783.38;;;16.21;79.36
68855;BME280;69984;-43.570;172.580;2023-06-22T10:38:08;101773.94;;;16.18;78.76
68855;BME280;69984;-43.570;172.580;2023-06-22T10:40:35;101772.31;;;15.99;79.68
68855;BME280;69984;-43.570;172.580;2023-06-22T10:43:02;101772.13;;;16.01;79.03
68855;BME280;69984;-43.570;172.580;2023-06-22T10:45:30;101765.22;;;15.82;79.73
68855;BME280;69984;-43.570;172.580;2023-06-22T10:47:57;101770.25;;;16.11;79.56
68855;BME280;69984;-43.570;172.580;2023-06-22T10:50:25;101774.75;;;15.93;79.74
68855;BME280;69984;-43.570;172.580;2023-06-22T10:52:53;101768.81;;;15.99;80.19
68855;BME280;69984;-43.570;172.580;2023-06-22T10:55:20;101775.78;;;16.00;79.24
68855;BME280;69984;-43.570;172.580;2023-06-22T10:57:48;101771.72;;;15.88;79.89
68855;BME280;69984;-43.570;172.580;2023-06-22T11:00:16;101776.88;;;16.15;79.01
68855;BME280;69984;-43.570;172.580;2023-06-22T11:02:46;101772.00;;;16.03;78.92
68855;BME280;69984;-43.570;172.580;2023-06-22T11:05:13;101773.72;;;15.94;79.38
68855;BME280;69984;-43.570;172.580;2023-06-22T11:07:44;101770.00;;;16.05;78.94
68855;BME280;69984;-43.570;172.580;2023-06-22T11:10:12;101772.22;;;15.91;79.17
68855;BME280;69984;-43.570;172.580;2023-06-22T11:12:39;101770.66;;;16.24;78.80
68855;BME280;69984;-43.570;172.580;2023-06-22T11:15:07;101775.28;;;16.05;79.44
68855;BME280;69984;-43.570;172.580;2023-06-22T11:17:34;101768.66;;;16.18;79.16
68855;BME280;69984;-43.570;172.580;2023-06-22T11:20:01;101770.53;;;16.08;79.40
68855;BME280;69984;-43.570;172.580;2023-06-22T11:22:35;101764.19;;;15.75;81.44
68855;BME280;69984;-43.570;172.580;2023-06-22T11:25:06;101766.94;;;15.91;80.73
68855;BME280;69984;-43.570;172.580;2023-06-22T11:27:33;101769.13;;;15.96;80.02
68855;BME280;69984;-43.570;172.580;2023-06-22T11:30:01;101770.53;;;16.08;80.07
68855;BME280;69984;-43.570;172.580;2023-06-22T11:32:28;101772.13;;;16.01;79.61
68855;BME280;69984;-43.570;172.580;2023-06-22T11:34:55;101773.75;;;16.20;78.97
68855;BME280;69984;-43.570;172.580;2023-06-22T11:37:22;101760.81;;;15.65;80.97
68855;BME280;69984;-43.570;172.580;2023-06-22T11:39:49;101757.09;;;15.76;81.37
68855;BME280;69984;-43.570;172.580;2023-06-22T11:42:16;101762.69;;;15.98;79.68
68855;BME280;69984;-43.570;172.580;2023-06-22T11:44:43;101757.53;;;16.15;79.22
68855;BME280;69984;-43.570;172.580;2023-06-22T11:47:10;101762.06;;;16.05;79.46
68855;BME280;69984;-43.570;172.580;2023-06-22T11:49:37;101763.25;;;16.28;78.87
68855;BME280;69984;-43.570;172.580;2023-06-22T11:52:05;101762.38;;;16.02;79.65
68855;BME280;69984;-43.570;172.580;2023-06-22T11:54:32;101766.34;;;16.23;79.03
68855;BME280;69984;-43.570;172.580;2023-06-22T11:56:59;101762.47;;;16.10;79.87
68855;BME280;69984;-43.570;172.580;2023-06-22T11:59:26;101762.19;;;16.21;78.76
68855;BME280;69984;-43.570;172.580;2023-06-22T12:01:53;101765.66;;;15.95;80.66
68855;BME280;69984;-43.570;172.580;2023-06-22T12:04:20;101766.59;;;16.12;79.81
68855;BME280;69984;-43.570;172.580;2023-06-22T12:06:47;101761.56;;;16.01;80.00
68855;BME280;69984;-43.570;172.580;2023-06-22T12:09:15;101767.31;;;16.22;79.50
68855;BME280;69984;-43.570;172.580;2023-06-22T12:11:42;101763.09;;;16.04;80.03
68855;BME280;69984;-43.570;172.580;2023-06-22T12:14:09;101759.94;;;15.82;81.21
68855;BME280;69984;-43.570;172.580;2023-06-22T12:16:36;101755.88;;;15.70;82.14
68855;BME280;69984;-43.570;172.580;2023-06-22T12:19:03;101757.38;;;15.73;81.67
68855;BME280;69984;-43.570;172.580;2023-06-22T12:21:30;101753.84;;;15.64;81.79
68855;BME280;69984;-43.570;172.580;2023-06-22T12:23:58;101761.44;;;15.85;81.97
68855;BME280;69984;-43.570;172.580;2023-06-22T12:26:25;101760.50;;;15.94;81.47
68855;BME280;69984;-43.570;172.580;2023-06-22T12:28:52;101762.19;;;15.95;81.08
68855;BME280;69984;-43.570;172.580;2023-06-22T12:31:19;101763.91;;;16.04;80.21
68855;BME280;69984;-43.570;172.580;2023-06-22T12:33:46;101763.34;;;15.75;81.57
68855;BME280;69984;-43.570;172.580;2023-06-22T12:36:13;101756.78;;;15.79;81.56
68855;BME280;69984;-43.570;172.580;2023-06-22T12:38:40;101760.63;;;15.67;82.40
68855;BME280;69984;-43.570;172.580;2023-06-22T12:41:07;101759.47;;;15.87;81.52
68855;BME280;69984;-43.570;172.580;2023-06-22T12:43:34;101751.28;;;15.72;81.94
68855;BME280;69984;-43.570;172.580;2023-06-22T12:46:01;101756.25;;;15.75;81.63
68855;BME280;69984;-43.570;172.580;2023-06-22T12:48:28;101761.09;;;16.06;80.37
68855;BME280;69984;-43.570;172.580;2023-06-22T12:50:55;101760.22;;;15.97;80.52